Time;durP1;ratioP1;P1;durP2;ratioP2;P2;SDS_P1;SDS_P2;PMS_P1;PMS_P2;Temp;Humidity;BMP_temperature;BMP_pressure;BME280_temperature;BME280_humidity;BME280_pressure;Samples;Min_cycle;Max_cycle;Signal;HPM_P1;HPM_P2
2022/02/21 00:02:04;;;;;;;0.50;0.40;;;9.10;99.90;;;;;;5057461;28;20454;-92
2022/02/21 00:04:31;;;;;;;0.43;0.37;;;;;;;;;;5057238;28;20442;-92
2022/02/21 00:06:58;;;;;;;2.00;0.77;;;;;;;;;;5056584;28;20443;-93
2022/02/21 00:09:26;;;;;;;1.87;0.70;;;;;;;;;;5056596;28;20481;-93
2022/02/21 00:11:54;;;;;;;2.77;0.87;;;9.10;99.90;;;;;;5056405;28;20478;-93
2022/02/21 00:14:21;;;;;;;1.30;0.67;;;;;;;;;;5056743;28;20451;-92
2022/02/21 00:16:48;;;;;;;0.80;0.40;;;;;;;;;;5056645;28;20447;-93
2022/02/21 00:19:16;;;;;;;0.93;0.30;;;;;;;;;;5056878;28;20454;-92
2022/02/21 00:21:43;;;;;;;4.50;0.60;;;;;;;;;;5055812;28;20450;-91
2022/02/21 00:24:10;;;;;;;1.47;0.70;;;;;;;;;;5056726;28;20510;-91
2022/02/21 00:26:37;;;;;;;1.80;1.07;;;;;;;;;;5056159;28;20435;-92
2022/02/21 00:39:12;;;;;;;1.17;0.70;;;9.30;99.90;;;;;;5055596;28;20450;-90
2022/02/21 00:45:06;;;;;;;1.00;0.60;;;;;;;;;;5055524;28;20505;-90
2022/02/21 00:47:33;;;;;;;1.37;0.60;;;;;;;;;;5055206;28;20894;-90
2022/02/21 00:50:00;;;;;;;0.70;0.43;;;;;;;;;;5055319;28;20810;-90
2022/02/21 00:52:27;;;;;;;1.10;0.40;;;;;;;;;;5054552;28;20574;-91
2022/02/21 00:54:55;;;;;;;3.03;0.83;;;9.00;99.90;;;;;;5055229;28;20447;-90
2022/02/21 00:57:23;;;;;;;0.50;0.40;;;;;;;;;;5055372;28;20462;-90
2022/02/21 00:59:50;;;;;;;0.70;0.50;;;;;;;;;;5055125;28;20454;-92
2022/02/21 01:02:17;;;;;;;3.93;0.83;;;;;;;;;;5055335;28;20455;-90
2022/02/21 01:04:44;;;;;;;1.57;0.67;;;;;;;;;;5054572;28;20450;-90
2022/02/21 01:07:11;;;;;;;1.57;0.50;;;;;;;;;;5053030;28;20773;-87
2022/02/21 01:09:38;;;;;;;4.97;1.27;;;;;;;;;;5054317;28;20453;-87
2022/02/21 01:12:08;;;;;;;1.00;0.60;;;8.70;99.90;;;;;;5054083;28;20494;-88
2022/02/21 01:14:36;;;;;;;8.77;0.83;;;;;;;;;;5054342;28;20464;-93
2022/02/21 01:17:03;;;;;;;1.70;0.67;;;;;;;;;;5055898;28;20439;-93
2022/02/21 01:19:30;;;;;;;8.00;0.70;;;;;;;;;;5055383;28;20442;-91
2022/02/21 01:21:57;;;;;;;0.70;0.40;;;;;;;;;;5054377;28;20442;-91
2022/02/21 01:24:24;;;;;;;1.33;0.47;;;;;;;;;;5054882;28;20538;-89
2022/02/21 01:26:51;;;;;;;1.80;0.53;;;;;;;;;;5054434;28;20835;-89
2022/02/21 01:29:19;;;;;;;2.20;0.60;;;8.60;99.90;;;;;;5054426;28;20458;-90
2022/02/21 01:31:47;;;;;;;3.03;1.00;;;;;;;;;;5054803;28;20458;-92
2022/02/21 01:34:14;;;;;;;2.20;0.60;;;;;;;;;;5055279;28;20447;-89
2022/02/21 01:36:42;;;;;;;1.83;0.50;;;;;;;;;;5053291;28;20446;-91
2022/02/21 01:39:09;;;;;;;0.57;0.40;;;;;;;;;;5054321;28;20938;-89
2022/02/21 01:41:36;;;;;;;0.60;0.30;;;;;;;;;;5054083;28;20442;-91
2022/02/21 01:44:05;;;;;;;0.60;0.43;;;8.60;99.90;;;;;;5054225;28;20480;-90
2022/02/21 01:46:34;;;;;;;1.10;0.80;;;8.60;99.90;;;;;;5055375;28;20461;-90
2022/02/21 01:49:01;;;;;;;3.70;1.03;;;;;;;;;;5055576;28;20538;-91
2022/02/21 01:51:28;;;;;;;3.10;1.07;;;;;;;;;;5053564;28;20458;-92
2022/02/21 01:53:56;;;;;;;2.30;0.70;;;8.70;99.90;;;;;;5054611;28;21016;-91
2022/02/21 01:56:23;;;;;;;4.83;0.70;;;;;;;;;;5054865;28;20447;-92
2022/02/21 01:58:50;;;;;;;2.20;0.50;;;;;;;;;;5053999;28;20454;-92
2022/02/21 02:01:17;;;;;;;2.77;0.80;;;;;;;;;;5054596;28;20442;-91
2022/02/21 02:03:46;;;;;;;2.20;0.50;;;8.70;99.90;;;;;;5054264;28;20450;-95
2022/02/21 02:06:13;;;;;;;2.73;1.10;;;;;;;;;;5051880;28;20450;-92
2022/02/21 02:08:41;;;;;;;1.27;0.60;;;;;;;;;;5054405;28;20443;-92
2022/02/21 02:11:08;;;;;;;1.13;0.50;;;;;;;;;;5053997;28;20438;-94
2022/02/21 02:13:35;;;;;;;1.80;0.50;;;;;;;;;;5055089;28;20479;-91
2022/02/21 02:16:02;;;;;;;1.17;0.60;;;;;;;;;;5054768;28;20450;-89
2022/02/21 02:18:29;;;;;;;0.80;0.30;;;;;;;;;;5054170;28;20456;-91
2022/02/21 02:20:57;;;;;;;0.93;0.50;;;8.70;99.90;;;;;;5054368;28;20919;-92
2022/02/21 02:23:26;;;;;;;2.60;0.60;;;8.60;99.90;;;;;;5053659;28;20446;-93
2022/02/21 02:25:53;;;;;;;0.80;0.40;;;;;;;;;;5053842;28;20438;-90
2022/02/21 02:28:21;;;;;;;1.97;0.43;;;;;;;;;;5054228;28;20522;-92
2022/02/21 02:30:48;;;;;;;1.20;0.70;;;;;;;;;;5053988;28;20458;-90
2022/02/21 02:33:15;;;;;;;1.50;0.60;;;;;;;;;;5053685;28;20481;-93
2022/02/21 02:35:43;;;;;;;2.50;0.50;;;;;;;;;;5054110;28;20437;-92
2022/02/21 02:38:10;;;;;;;1.07;0.40;;;;;;;;;;5053891;28;20792;-90
2022/02/21 02:40:38;;;;;;;0.83;0.50;;;8.50;99.90;;;;;;5053725;28;20454;-92
2022/02/21 02:43:05;;;;;;;2.83;0.83;;;;;;;;;;5053707;28;20492;-90
2022/02/21 02:45:33;;;;;;;0.73;0.43;;;;;;;;;;5053726;28;20450;-92
2022/02/21 02:48:00;;;;;;;2.70;0.60;;;;;;;;;;5053778;28;20471;-89
2022/02/21 02:50:27;;;;;;;1.23;0.50;;;;;;;;;;5054107;28;20438;-91
2022/02/21 02:52:55;;;;;;;1.33;0.70;;;;;;;;;;5052639;28;20493;-90
2022/02/21 02:55:22;;;;;;;1.63;0.80;;;;;;;;;;5054133;28;20841;-91
2022/02/21 02:57:50;;;;;;;7.40;0.60;;;8.40;99.90;;;;;;5053489;28;20496;-91
2022/02/21 03:00:17;;;;;;;0.63;0.40;;;;;;;;;;5054326;28;20423;-90
2022/02/21 03:02:44;;;;;;;0.70;0.70;;;;;;;;;;5054146;28;20890;-89
2022/02/21 03:05:12;;;;;;;0.97;0.33;;;;;;;;;;5053838;28;20881;-90
2022/02/21 03:07:39;;;;;;;0.80;0.40;;;;;;;;;;5053013;28;20447;-89
2022/02/21 03:10:06;;;;;;;2.97;1.10;;;;;;;;;;5054035;28;20439;-92
2022/02/21 03:12:33;;;;;;;0.90;0.33;;;;;;;;;;5054178;28;20466;-91
2022/02/21 03:15:01;;;;;;;1.37;0.60;;;8.70;99.90;;;;;;5054158;28;20446;-90
2022/02/21 03:17:28;;;;;;;2.00;0.60;;;;;;;;;;5056006;28;20454;-88
2022/02/21 03:19:55;;;;;;;0.60;0.40;;;;;;;;;;5054081;28;20450;-93
2022/02/21 03:22:23;;;;;;;2.30;0.40;;;;;;;;;;5053543;28;20450;-91
2022/02/21 03:24:50;;;;;;;2.30;0.60;;;;;;;;;;5054116;28;20899;-93
2022/02/21 03:27:17;;;;;;;1.27;0.40;;;;;;;;;;5054361;28;20447;-90
2022/02/21 03:29:44;;;;;;;0.50;0.30;;;;;;;;;;5056987;28;20801;-91
2022/02/21 03:32:12;;;;;;;0.50;0.30;;;8.40;99.90;;;;;;5058848;28;20828;-90
2022/02/21 03:34:39;;;;;;;2.20;0.70;;;;;;;;;;5057456;28;20474;-90
2022/02/21 03:37:06;;;;;;;0.40;0.30;;;;;;;;;;5057362;28;20435;-91
2022/02/21 03:39:34;;;;;;;2.23;0.60;;;;;;;;;;5057914;28;20451;-91
2022/02/21 03:42:01;;;;;;;2.23;0.67;;;;;;;;;;5057397;28;20446;-90
2022/02/21 03:44:28;;;;;;;0.60;0.40;;;;;;;;;;5056999;28;20457;-92
2022/02/21 03:46:55;;;;;;;1.93;0.90;;;;;;;;;;5058165;28;20930;-93
2022/02/21 03:49:23;;;;;;;1.73;0.47;;;7.30;99.90;;;;;;5058949;28;20454;-94
2022/02/21 03:51:50;;;;;;;1.37;0.30;;;;;;;;;;5059305;28;20485;-93
2022/02/21 03:54:17;;;;;;;1.57;0.40;;;;;;;;;;5058848;28;20502;-92
2022/02/21 03:56:45;;;;;;;0.80;0.50;;;;;;;;;;5061619;28;20459;-93
2022/02/21 03:59:13;;;;;;;0.73;0.30;;;;;;;;;;5059763;28;20445;-93
2022/02/21 04:01:40;;;;;;;0.30;0.20;;;;;;;;;;5041854;28;20551;-92
2022/02/21 04:04:09;;;;;;;1.37;0.40;;;;;;;;;;5066896;28;20448;-93
2022/02/21 04:06:38;;;;;;;4.13;1.00;;;;;;;;;;5060676;28;20450;-91
2022/02/21 04:09:05;;;;;;;0.40;0.20;;;;;;;;;;5059415;28;20844;-91
2022/02/21 04:11:32;;;;;;;0.30;0.20;;;;;;;;;;5057246;28;20458;-91
2022/02/21 04:13:59;;;;;;;1.13;0.30;;;;;;;;;;5060514;28;20486;-91
2022/02/21 04:16:31;;;;;;;0.50;0.20;;;;;;;;;;5079968;28;20436;-90
2022/02/21 04:18:59;;;;;;;0.40;0.20;;;;;;;;;;5067480;28;20461;-90
2022/02/21 04:21:26;;;;;;;0.40;0.30;;;;;;;;;;5057167;28;20438;-90
2022/02/21 04:23:54;;;;;;;1.23;0.50;;;;;;;;;;5057057;28;20665;-89
2022/02/21 04:26:22;;;;;;;0.80;0.40;;;;;;;;;;5057769;28;20444;-92
2022/02/21 04:28:49;;;;;;;1.03;0.53;;;;;;;;;;5055971;28;20476;-90
2022/02/21 04:31:17;;;;;;;0.60;0.40;;;;;;;;;;5059491;28;20445;-90
2022/02/21 04:33:44;;;;;;;2.80;0.60;;;;;;;;;;5057491;28;20483;-91
2022/02/21 04:36:12;;;;;;;1.60;0.30;;;;;;;;;;5055424;28;20443;-89
2022/02/21 04:38:39;;;;;;;3.17;0.40;;;;;;;;;;5055921;28;20451;-89
2022/02/21 04:41:07;;;;;;;0.70;0.70;;;2.60;99.90;;;;;;5055716;28;20458;-89
2022/02/21 04:43:34;;;;;;;4.23;0.50;;;;;;;;;;5056933;28;20447;-89
2022/02/21 04:46:02;;;;;;;1.57;0.60;;;;;;;;;;5055747;28;20446;-88
2022/02/21 04:48:30;;;;;;;2.10;0.80;;;2.60;99.90;;;;;;5056670;28;20453;-89
2022/02/21 04:50:57;;;;;;;1.37;0.50;;;;;;;;;;5055653;28;20478;-89
2022/02/21 04:53:24;;;;;;;0.40;0.30;;;;;;;;;;5054809;28;21014;-89
2022/02/21 04:55:51;;;;;;;0.40;0.30;;;;;;;;;;5055518;28;20455;-89
2022/02/21 04:58:21;;;;;;;0.90;0.40;;;;;;;;;;5055713;28;20454;-89
2022/02/21 05:00:48;;;;;;;1.90;0.60;;;;;;;;;;5055249;28;20453;-88
2022/02/21 05:03:15;;;;;;;2.10;0.83;;;;;;;;;;5055195;28;20820;-89
2022/02/21 05:05:44;;;;;;;4.03;1.27;;;2.90;99.90;;;;;;5054789;28;20442;-88
2022/02/21 05:08:11;;;;;;;2.10;0.80;;;;;;;;;;5054033;28;20457;-90
2022/02/21 05:10:39;;;;;;;1.63;0.50;;;;;;;;;;5055260;28;20446;-89
2022/02/21 05:13:06;;;;;;;1.43;0.60;;;;;;;;;;5055066;28;20938;-90
2022/02/21 05:15:34;;;;;;;0.63;0.50;;;3.10;99.90;;;;;;5053998;28;20458;-89
2022/02/21 05:18:01;;;;;;;5.70;0.90;;;;;;;;;;5056653;28;20446;-91
2022/02/21 05:20:29;;;;;;;2.27;0.50;;;;;;;;;;5054984;28;20966;-90
2022/02/21 05:22:56;;;;;;;2.40;0.80;;;;;;;;;;5053540;28;20468;-90
2022/02/21 05:25:23;;;;;;;3.70;1.20;;;3.40;99.90;;;;;;5055391;28;20458;-91
2022/02/21 05:27:50;;;;;;;2.40;0.77;;;;;;;;;;5055255;28;20438;-90
2022/02/21 05:30:18;;;;;;;1.37;0.47;;;;;;;;;;5055871;28;20435;-89
2022/02/21 05:32:46;;;;;;;1.73;0.70;;;;;;;;;;5055822;28;20451;-91
2022/02/21 05:35:14;;;;;;;4.90;1.37;;;;;;;;;;5055836;28;20844;-91
2022/02/21 05:37:41;;;;;;;4.40;1.30;;;;;;;;;;5054310;28;20443;-89
2022/02/21 05:40:09;;;;;;;1.53;1.00;;;3.70;99.90;;;;;;5054965;28;20427;-92
2022/02/21 05:42:36;;;;;;;1.77;0.80;;;;;;;;;;5055914;28;20822;-93
2022/02/21 05:45:03;;;;;;;4.63;1.00;;;;;;;;;;5054773;28;20455;-88
2022/02/21 05:47:31;;;;;;;2.00;1.00;;;3.80;99.90;;;;;;5054605;28;20957;-90
2022/02/21 05:49:59;;;;;;;1.07;0.40;;;3.80;99.90;;;;;;5055035;28;20960;-91
2022/02/21 05:52:26;;;;;;;4.83;1.07;;;;;;;;;;5053155;28;20482;-89
2022/02/21 05:54:53;;;;;;;4.83;1.93;;;;;;;;;;5054691;28;21020;-89
2022/02/21 05:57:20;;;;;;;1.67;1.47;;;;;;;;;;5054143;28;20516;-89
2022/02/21 05:59:47;;;;;;;1.90;0.80;;;;;;;;;;5053920;28;20938;-89
2022/02/21 06:02:14;;;;;;;6.53;1.63;;;;;;;;;;5054228;28;20446;-90
2022/02/21 06:04:42;;;;;;;6.67;1.07;;;;;;;;;;5054065;28;20457;-91
2022/02/21 06:07:14;;;;;;;3.80;1.03;;;;;;;;;;5053771;28;20473;-90
2022/02/21 06:09:41;;;;;;;3.07;1.30;;;;;;;;;;5053753;28;20454;-90
2022/02/21 06:12:10;;;;;;;2.03;0.70;;;3.90;99.90;;;;;;5053665;28;20461;-90
2022/02/21 06:14:38;;;;;;;1.77;0.60;;;;;;;;;;5053612;28;20494;-89
2022/02/21 06:17:05;;;;;;;5.67;2.20;;;3.40;99.90;;;;;;5053829;28;20458;-89
2022/02/21 06:19:33;;;;;;;7.00;1.80;;;;;;;;;;5053372;28;20466;-89
2022/02/21 06:22:02;;;;;;;8.47;1.77;;;;;;;;;;5054467;28;20527;-90
2022/02/21 06:24:30;;;;;;;9.60;1.57;;;3.90;99.90;;;;;;5054335;28;20529;-89
2022/02/21 06:26:58;;;;;;;3.60;1.30;;;;;;;;;;5053614;28;20450;-88
2022/02/21 06:29:25;;;;;;;6.50;1.90;;;;;;;;;;5060586;28;20455;-89
2022/02/21 06:31:52;;;;;;;4.50;1.47;;;;;;;;;;5056916;28;20455;-88
2022/02/21 06:34:20;;;;;;;4.10;1.37;;;3.80;99.90;;;;;;5055189;28;20500;-89
2022/02/21 06:36:47;;;;;;;0.50;0.37;;;;;;;;;;5055344;28;20453;-88
2022/02/21 06:39:15;;;;;;;5.17;1.50;;;;;;;;;;5053448;28;20458;-88
2022/02/21 06:41:43;;;;;;;7.00;1.53;;;3.90;99.90;;;;;;5052839;28;20449;-88
2022/02/21 06:44:12;;;;;;;1.63;0.73;;;;;;;;;;5053404;28;20453;-92
2022/02/21 06:46:39;;;;;;;3.03;1.00;;;;;;;;;;5054426;28;20503;-89
2022/02/21 06:49:08;;;;;;;9.23;2.50;;;;;;;;;;5053706;28;20454;-86
2022/02/21 06:51:36;;;;;;;8.53;2.30;;;;;;;;;;5052579;28;20466;-87
2022/02/21 06:54:03;;;;;;;3.93;0.73;;;;;;;;;;5069477;28;20524;-89
2022/02/21 06:56:30;;;;;;;5.70;1.03;;;;;;;;;;5072340;28;20447;-92
2022/02/21 06:58:58;;;;;;;2.10;0.73;;;4.00;99.90;;;;;;5059138;28;20836;-88
2022/02/21 07:01:25;;;;;;;9.90;0.90;;;;;;;;;;5055584;28;20439;-90
2022/02/21 07:03:54;;;;;;;2.97;0.70;;;;;;;;;;5056150;28;20442;-90
2022/02/21 07:06:21;;;;;;;7.93;1.10;;;;;;;;;;5056750;28;20442;-87
2022/02/21 07:08:48;;;;;;;2.30;1.20;;;;;;;;;;5057043;28;20451;-86
2022/02/21 07:11:15;;;;;;;18.43;2.83;;;;;;;;;;5056805;28;20457;-88
2022/02/21 07:13:42;;;;;;;11.70;0.93;;;;;;;;;;5056775;28;20457;-88
2022/02/21 07:16:11;;;;;;;3.80;0.80;;;;;;;;;;5056792;28;20462;-89
2022/02/21 07:18:38;;;;;;;3.07;1.33;;;;;;;;;;5059558;28;20460;-88
2022/02/21 07:21:05;;;;;;;2.73;0.47;;;;;;;;;;5056686;28;20434;-87
2022/02/21 07:23:35;;;;;;;10.37;1.80;;;;;;;;;;5057068;28;20461;-87
2022/02/21 07:26:02;;;;;;;1.07;0.90;;;;;;;;;;5056537;28;20449;-88
2022/02/21 07:28:29;;;;;;;7.67;1.70;;;;;;;;;;5056847;28;20922;-87
2022/02/21 07:30:56;;;;;;;1.57;0.77;;;;;;;;;;5056573;28;20500;-88
2022/02/21 07:33:25;;;;;;;14.50;1.57;;;4.20;99.90;;;;;;5055509;28;20824;-88
2022/02/21 07:35:52;;;;;;;4.20;1.00;;;;;;;;;;5056062;28;20982;-88
2022/02/21 07:38:19;;;;;;;2.17;0.90;;;;;;;;;;5055864;28;20458;-88
2022/02/21 07:40:46;;;;;;;3.60;1.30;;;;;;;;;;5056567;28;21080;-88
2022/02/21 07:43:14;;;;;;;4.20;1.63;;;;;;;;;;5056689;28;20458;-90
2022/02/21 07:45:41;;;;;;;3.43;1.07;;;;;;;;;;5057015;28;20780;-88
2022/02/21 07:48:08;;;;;;;2.60;1.00;;;;;;;;;;5056560;28;20953;-92
2022/02/21 07:50:36;;;;;;;4.50;0.70;;;5.00;99.90;;;;;;5057856;28;20478;-91
2022/02/21 07:53:05;;;;;;;1.47;0.53;;;;;;;;;;5059057;28;20488;-91
2022/02/21 07:55:32;;;;;;;6.60;1.90;;;;;;;;;;5061055;28;20577;-92
2022/02/21 07:58:00;;;;;;;3.90;1.03;;;;;;;;;;5056901;28;20508;-92
2022/02/21 08:00:27;;;;;;;10.10;1.67;;;5.40;99.90;;;;;;5056461;28;20447;-89
2022/02/21 08:02:54;;;;;;;3.00;1.03;;;;;;;;;;5057177;28;20454;-92
2022/02/21 08:05:21;;;;;;;1.50;0.63;;;;;;;;;;5057574;28;20466;-92
2022/02/21 08:07:49;;;;;;;4.17;1.43;;;5.60;99.90;;;;;;5056674;28;20466;-93
2022/02/21 08:10:16;;;;;;;6.27;1.53;;;;;;;;;;5058227;28;20438;-91
2022/02/21 08:12:43;;;;;;;6.90;1.80;;;;;;;;;;5058378;28;20443;-92
2022/02/21 08:15:11;;;;;;;6.03;1.37;;;;;;;;;;5057063;28;20478;-92
2022/02/21 08:17:39;;;;;;;1.17;0.63;;;5.50;99.90;;;;;;5057626;28;20439;-91
2022/02/21 08:20:07;;;;;;;10.27;2.23;;;;;;;;;;5056230;28;20435;-89
2022/02/21 08:22:34;;;;;;;6.33;1.37;;;;;;;;;;5055712;28;20438;-90
2022/02/21 08:25:02;;;;;;;10.70;2.50;;;6.00;99.90;;;;;;5057044;28;20460;-92
2022/02/21 08:27:29;;;;;;;9.70;1.70;;;;;;;;;;5051580;28;20450;-92
2022/02/21 08:29:56;;;;;;;7.17;1.10;;;;;;;;;;5056831;28;20466;-89
2022/02/21 08:32:23;;;;;;;4.33;1.83;;;;;;;;;;5057302;28;20923;-92
2022/02/21 08:34:50;;;;;;;2.50;1.03;;;;;;;;;;5060317;28;20486;-91
2022/02/21 08:37:18;;;;;;;3.20;1.13;;;;;;;;;;5056163;28;20813;-92
2022/02/21 08:39:45;;;;;;;7.63;1.23;;;;;;;;;;5056711;28;20537;-93
2022/02/21 08:42:13;;;;;;;4.47;1.17;;;6.80;99.90;;;;;;5052957;28;20504;-91
2022/02/21 08:44:40;;;;;;;2.37;1.00;;;;;;;;;;5056214;28;20454;-92
2022/02/21 08:47:07;;;;;;;6.13;1.73;;;;;;;;;;5052642;28;20443;-93
2022/02/21 08:49:35;;;;;;;7.93;0.83;;;;;;;;;;5056237;28;20474;-91
2022/02/21 08:52:02;;;;;;;2.60;0.93;;;;;;;;;;5051910;28;20446;-92
2022/02/21 08:54:29;;;;;;;1.60;0.83;;;;;;;;;;5038252;28;20823;-92
2022/02/21 08:56:56;;;;;;;5.30;1.53;;;;;;;;;;5036048;28;20942;-93
2022/02/21 08:59:25;;;;;;;2.40;0.50;;;6.10;99.90;;;;;;5035650;28;20445;-92
2022/02/21 09:01:52;;;;;;;2.60;0.87;;;;;;;;;;5035907;28;20452;-90
2022/02/21 09:04:19;;;;;;;8.07;1.53;;;;;;;;;;5035948;28;20807;-91
2022/02/21 09:06:46;;;;;;;4.83;1.10;;;;;;;;;;5034781;28;20809;-91
2022/02/21 09:09:13;;;;;;;10.27;1.70;;;;;;;;;;5035368;28;20455;-89
2022/02/21 09:11:40;;;;;;;1.90;1.07;;;;;;;;;;5035327;28;20456;-92
2022/02/21 09:14:07;;;;;;;3.77;1.13;;;;;;;;;;5035303;28;20443;-90
2022/02/21 09:16:36;;;;;;;8.77;1.70;;;;;;;;;;5030089;28;20456;-90
2022/02/21 09:19:04;;;;;;;6.43;1.83;;;6.20;99.90;;;;;;5038934;28;20448;-89
2022/02/21 09:21:31;;;;;;;1.73;0.93;;;;;;;;;;5034026;28;20452;-91
2022/02/21 09:23:58;;;;;;;3.47;1.00;;;;;;;;;;5048065;28;20462;-90
2022/02/21 09:26:27;;;;;;;1.97;1.00;;;;;;;;;;5037953;28;20801;-91
2022/02/21 09:28:55;;;;;;;8.27;1.17;;;;;;;;;;5055021;28;20806;-91
2022/02/21 09:31:22;;;;;;;2.03;1.23;;;;;;;;;;5053167;28;20450;-89
2022/02/21 09:33:51;;;;;;;9.23;3.07;;;;;;;;;;5055737;28;20476;-88
2022/02/21 09:36:18;;;;;;;5.77;1.93;;;;;;;;;;5053619;28;20495;-87
2022/02/21 09:38:45;;;;;;;3.60;1.13;;;;;;;;;;5053348;28;20956;-92
2022/02/21 09:41:12;;;;;;;4.00;0.93;;;;;;;;;;5054242;28;20455;-90
2022/02/21 09:43:49;;;;;;;3.83;1.67;;;;;;;;;;5047316;28;20508;-91
2022/02/21 09:46:16;;;;;;;5.37;1.07;;;;;;;;;;5051034;28;20557;-91
2022/02/21 09:48:47;;;;;;;4.47;1.20;;;;;;;;;;5050846;28;20565;-93
2022/02/21 09:51:15;;;;;;;20.70;2.97;;;;;;;;;;5053341;28;20442;-89
2022/02/21 09:53:45;;;;;;;8.40;2.10;;;8.00;99.90;;;;;;5050749;28;20895;-90
2022/02/21 09:56:13;;;;;;;4.93;0.70;;;;;;;;;;5047540;28;20494;-89
2022/02/21 09:58:40;;;;;;;6.70;2.10;;;;;;;;;;5053341;28;20792;-88
2022/02/21 10:01:08;;;;;;;9.47;1.23;;;8.40;99.90;;;;;;5053199;28;20454;-91
2022/02/21 10:03:45;;;;;;;7.40;1.43;;;7.80;99.90;;;;;;5048878;28;20440;-88
2022/02/21 10:06:30;;;;;;;5.17;1.23;;;8.40;99.90;;;;;;5052831;28;20442;-92
2022/02/21 10:09:00;;;;;;;7.70;1.23;;;7.90;99.90;;;;;;5059708;28;20451;-94
2022/02/21 10:11:29;;;;;;;4.57;1.17;;;8.40;99.90;;;;;;5054469;28;20439;-95
2022/02/21 10:14:00;;;;;;;3.57;1.20;;;8.50;99.90;;;;;;5056304;28;20451;-92
2022/02/21 10:16:38;;;;;;;7.53;1.83;;;8.80;99.90;;;;;;5052380;28;20489;-94
2022/02/21 10:19:09;;;;;;;4.20;0.87;;;;;;;;;;5049396;28;20438;-94
2022/02/21 10:22:10;;;;;;;1.13;0.50;;;8.20;99.90;;;;;;5053739;28;20454;-93
2022/02/21 10:24:43;;;;;;;3.70;1.23;;;8.00;99.90;;;;;;5045649;28;20481;-93
2022/02/21 10:27:17;;;;;;;4.17;1.13;;;7.70;99.90;;;;;;5039517;28;20445;-92
2022/02/21 10:29:47;;;;;;;1.73;0.87;;;8.50;99.90;;;;;;5054864;28;20435;-93
2022/02/21 10:32:15;;;;;;;2.07;1.20;;;9.10;99.90;;;;;;5054125;28;20450;-93
2022/02/21 10:34:45;;;;;;;2.60;1.07;;;;;;;;;;5053971;28;20457;-92
2022/02/21 10:37:15;;;;;;;1.93;0.93;;;8.50;97.90;;;;;;5053773;28;20482;-92
2022/02/21 10:39:42;;;;;;;3.33;1.27;;;;;;;;;;5054711;28;20450;-90
2022/02/21 10:42:09;;;;;;;2.40;1.27;;;;;;;;;;5046807;28;20447;-93
2022/02/21 10:44:38;;;;;;;3.27;0.77;;;7.90;98.20;;;;;;5044372;28;20450;-92
2022/02/21 10:47:13;;;;;;;3.23;0.60;;;7.90;97.70;;;;;;5053876;28;20490;-89
2022/02/21 10:49:46;;;;;;;4.37;1.43;;;8.30;97.50;;;;;;5053343;28;20462;-90
2022/02/21 10:52:16;;;;;;;1.00;0.63;;;8.40;96.20;;;;;;5049784;28;20779;-89
2022/02/21 10:54:44;;;;;;;2.90;0.87;;;;;;;;;;5053099;28;20457;-88
2022/02/21 10:57:13;;;;;;;5.37;1.10;;;8.30;96.20;;;;;;5053301;28;20447;-89
2022/02/21 10:59:41;;;;;;;2.00;0.83;;;;;;;;;;5050567;28;20454;-88
2022/02/21 11:02:10;;;;;;;5.33;1.20;;;8.40;95.80;;;;;;5050426;28;20447;-90
2022/02/21 11:04:38;;;;;;;4.97;1.20;;;8.80;95.20;;;;;;5032501;28;20460;-89
2022/02/21 11:07:07;;;;;;;6.90;2.17;;;8.80;95.60;;;;;;5031569;28;20832;-90
2022/02/21 11:09:39;;;;;;;1.47;0.87;;;8.90;95.40;;;;;;5033244;28;20460;-91
2022/02/21 11:12:06;;;;;;;5.20;1.20;;;;;;;;;;5033129;28;20451;-90
2022/02/21 11:14:35;;;;;;;2.30;0.77;;;8.80;95.60;;;;;;5033026;28;20461;-91
2022/02/21 11:17:04;;;;;;;1.83;1.00;;;7.80;96.80;;;;;;5033781;28;20533;-89
2022/02/21 11:19:31;;;;;;;7.83;1.10;;;;;;;;;;5033425;28;20452;-90
2022/02/21 11:21:59;;;;;;;3.50;0.73;;;7.10;98.40;;;;;;5033033;28;20455;-94
2022/02/21 11:24:28;;;;;;;2.70;1.00;;;6.80;99.00;;;;;;5031285;28;20450;-95
2022/02/21 11:27:31;;;;;;;3.27;0.90;;;6.50;99.90;;;;;;5031305;28;20464;-92
2022/02/21 11:30:05;;;;;;;1.80;0.60;;;6.40;99.90;;;;;;4997431;28;20455;-91
2022/02/21 11:32:32;;;;;;;1.10;0.80;;;;;;;;;;5034033;28;20918;-90
2022/02/21 11:35:15;;;;;;;2.60;1.10;;;6.40;99.90;;;;;;5017834;28;20449;-89
2022/02/21 11:37:42;;;;;;;1.27;0.67;;;;;;;;;;5010672;28;20453;-91
2022/02/21 11:40:09;;;;;;;3.40;1.20;;;;;;;;;;5007630;28;20503;-89
2022/02/21 11:42:39;;;;;;;5.10;1.30;;;;;;;;;;5014707;28;20941;-92
2022/02/21 11:45:22;;;;;;;2.50;1.00;;;5.90;99.90;;;;;;5014429;28;20498;-91
2022/02/21 11:47:51;;;;;;;4.53;0.80;;;5.90;99.90;;;;;;5015423;28;20460;-92
2022/02/21 11:50:26;;;;;;;6.40;0.77;;;5.70;99.90;;;;;;5016433;28;20445;-90
2022/02/21 11:52:56;;;;;;;3.00;1.40;;;6.00;99.90;;;;;;5016603;28;20537;-92
2022/02/21 11:55:38;;;;;;;5.23;0.97;;;;;;;;;;5017545;28;20492;-91
2022/02/21 11:58:36;;;;;;;6.63;1.70;;;6.20;99.90;;;;;;5017928;28;20977;-91
2022/02/21 12:01:22;;;;;;;1.23;0.50;;;6.60;99.90;;;;;;5018267;28;20453;-91
2022/02/21 12:04:15;;;;;;;2.50;0.90;;;6.90;99.90;;;;;;5018412;28;20475;-92
2022/02/21 12:06:52;;;;;;;1.10;0.60;;;7.00;99.90;;;;;;5017878;28;20452;-91
2022/02/21 12:09:19;;;;;;;6.23;1.43;;;;;;;;;;5020413;28;20455;-90
2022/02/21 12:11:46;;;;;;;5.00;1.37;;;;;;;;;;5018288;28;20479;-93
2022/02/21 12:14:22;;;;;;;1.40;0.70;;;;;;;;;;5020481;28;20429;-93
2022/02/21 12:17:00;;;;;;;3.80;0.83;;;;;;;;;;5019534;28;20492;-93
2022/02/21 12:19:27;;;;;;;8.47;2.23;;;;;;;;;;5018453;28;20459;-91
2022/02/21 12:22:15;;;;;;;4.20;1.07;;;7.20;96.70;;;;;;5017089;28;20490;-91
2022/02/21 12:25:08;;;;;;;2.33;1.53;;;7.10;96.40;;;;;;5014474;28;20460;-94
2022/02/21 12:27:35;;;;;;;1.23;0.63;;;;;;;;;;5018206;28;20445;-92
2022/02/21 12:30:03;;;;;;;1.33;0.53;;;6.90;96.60;;;;;;5018843;28;20804;-92
2022/02/21 12:32:31;;;;;;;1.73;0.63;;;;;;;;;;5012262;28;20494;-94
2022/02/21 12:34:59;;;;;;;3.77;0.70;;;;;;;;;;5019125;28;20452;-91
2022/02/21 12:37:26;;;;;;;1.70;0.80;;;;;;;;;;5017830;28;20487;-93
2022/02/21 12:39:53;;;;;;;1.90;0.67;;;;;;;;;;5017825;28;20456;-90
2022/02/21 12:42:21;;;;;;;2.43;0.87;;;;;;;;;;5017540;28;20467;-91
2022/02/21 12:44:48;;;;;;;1.87;0.90;;;;;;;;;;5020392;28;20495;-94
2022/02/21 12:47:24;;;;;;;1.23;0.83;;;6.50;97.80;;;;;;5025612;28;20452;-92
2022/02/21 12:49:51;;;;;;;7.30;1.67;;;6.40;98.40;;;;;;5017719;28;20459;-91
2022/02/21 12:52:19;;;;;;;7.03;3.50;;;;;;;;;;5010980;28;20452;-92
2022/02/21 12:54:56;;;;;;;5.67;1.50;;;6.40;98.60;;;;;;5017205;28;20448;-92
2022/02/21 12:57:25;;;;;;;3.13;1.40;;;6.50;98.90;;;;;;5012883;28;20491;-92
2022/02/21 12:59:54;;;;;;;2.40;0.40;;;6.50;99.50;;;;;;5012183;28;20456;-94
2022/02/21 13:02:23;;;;;;;8.47;1.03;;;6.50;99.60;;;;;;5016693;28;20448;-91
2022/02/21 13:04:50;;;;;;;1.67;0.77;;;;;;;;;;5015588;28;20444;-91
2022/02/21 13:07:20;;;;;;;3.27;0.50;;;;;;;;;;5012162;28;20460;-92
2022/02/21 13:09:48;;;;;;;2.77;1.30;;;6.40;99.90;;;;;;5017656;28;20449;-94
2022/02/21 13:12:16;;;;;;;6.97;1.00;;;6.40;99.90;;;;;;5012977;28;20885;-92
2022/02/21 13:14:43;;;;;;;1.80;1.13;;;;;;;;;;5016312;28;20449;-93
2022/02/21 13:17:12;;;;;;;4.33;0.67;;;6.50;99.90;;;;;;5015574;28;21003;-92
2022/02/21 13:19:42;;;;;;;2.30;1.00;;;6.60;99.90;;;;;;5012596;28;20471;-89
2022/02/21 13:22:11;;;;;;;2.43;1.20;;;6.60;99.90;;;;;;5015076;28;20453;-90
2022/02/21 13:24:40;;;;;;;2.67;1.50;;;6.80;99.90;;;;;;5011458;28;20459;-92
2022/02/21 13:27:09;;;;;;;2.80;0.80;;;6.90;99.90;;;;;;5015293;28;21052;-90
2022/02/21 13:29:40;;;;;;;1.63;1.00;;;6.80;99.90;;;;;;5015109;28;20461;-91
2022/02/21 13:32:21;;;;;;;2.30;1.17;;;6.60;99.90;;;;;;5012472;28;20456;-91
2022/02/21 13:35:09;;;;;;;1.30;1.10;;;6.80;99.90;;;;;;5027873;28;20460;-91
2022/02/21 13:37:38;;;;;;;0.63;0.50;;;6.90;99.90;;;;;;5032397;28;20490;-93
2022/02/21 13:40:09;;;;;;;6.77;0.70;;;7.00;99.90;;;;;;5034578;28;20440;-92
2022/02/21 13:42:37;;;;;;;5.50;1.37;;;6.90;99.50;;;;;;5027996;28;20531;-89
2022/02/21 13:45:22;;;;;;;3.70;0.90;;;6.70;99.90;;;;;;5031756;28;20812;-94
2022/02/21 13:48:11;;;;;;;1.37;1.20;;;6.60;99.90;;;;;;5035717;28;20490;-89
2022/02/21 13:50:43;;;;;;;0.90;0.43;;;6.70;99.90;;;;;;5033717;28;20463;-92
2022/02/21 13:53:12;;;;;;;1.83;0.87;;;6.60;99.90;;;;;;5032926;28;20483;-91
2022/02/21 13:55:40;;;;;;;1.07;0.47;;;6.60;99.90;;;;;;5036327;28;20454;-92
2022/02/21 13:58:08;;;;;;;1.93;0.90;;;6.60;99.90;;;;;;5035425;28;20459;-90
2022/02/21 14:00:44;;;;;;;2.87;0.90;;;6.50;99.90;;;;;;5035236;28;20528;-90
2022/02/21 14:03:11;;;;;;;0.80;0.50;;;;;;;;;;5030277;28;20934;-93
2022/02/21 14:05:58;;;;;;;1.70;0.60;;;6.30;99.90;;;;;;5036834;28;20790;-93
2022/02/21 14:08:40;;;;;;;1.50;0.73;;;6.30;99.90;;;;;;5032042;28;20790;-91
2022/02/21 14:11:08;;;;;;;1.73;0.60;;;6.20;99.90;;;;;;5035766;28;20478;-92
2022/02/21 14:13:36;;;;;;;3.70;1.70;;;;;;;;;;5032191;28;20477;-93
2022/02/21 14:16:03;;;;;;;7.50;3.17;;;;;;;;;;5033957;28;20482;-92
2022/02/21 14:18:30;;;;;;;5.80;2.73;;;;;;;;;;5032386;28;20451;-91
2022/02/21 14:20:59;;;;;;;1.43;1.00;;;;;;;;;;5036498;28;20439;-91
2022/02/21 14:23:26;;;;;;;2.83;1.27;;;;;;;;;;5020189;28;20459;-92
2022/02/21 14:25:53;;;;;;;3.77;1.50;;;;;;;;;;5016060;28;20437;-92
2022/02/21 14:28:20;;;;;;;1.80;1.07;;;;;;;;;;5012787;28;20467;-90
2022/02/21 14:30:47;;;;;;;3.27;1.20;;;;;;;;;;5033468;28;20927;-91